createdAt,value
2023-04-25T00:00:00.897Z,6.5
2023-04-25T00:05:01.059Z,6.5
2023-04-25T00:10:00.868Z,6.3
2023-04-25T00:15:01.039Z,6.3
2023-04-25T00:20:00.910Z,6.2
2023-04-25T00:25:01.009Z,6.1
2023-04-25T00:30:01.035Z,6
2023-04-25T00:35:00.996Z,6.1
2023-04-25T00:40:01.058Z,6.1
2023-04-25T00:45:00.913Z,6.1
2023-04-25T00:50:00.847Z,6.1
2023-04-25T00:55:00.999Z,6
2023-04-25T01:00:00.889Z,6
2023-04-25T01:05:01.015Z,6
2023-04-25T01:10:00.992Z,6
2023-04-25T01:15:00.885Z,6
2023-04-25T01:20:00.925Z,6
2023-04-25T01:25:01.029Z,6
2023-04-25T01:30:00.950Z,5.8
2023-04-25T01:35:00.901Z,5.8
2023-04-25T01:40:01.140Z,5.8
2023-04-25T01:45:00.960Z,5.8
2023-04-25T01:50:00.955Z,5.8
2023-04-25T01:55:00.886Z,5.8
2023-04-25T02:00:01.020Z,5.8
2023-04-25T02:05:00.979Z,5.8
2023-04-25T02:10:00.908Z,5.8
2023-04-25T02:15:00.874Z,5.8
2023-04-25T02:20:00.955Z,5.7
2023-04-25T02:25:00.997Z,5.7
2023-04-25T02:35:00.940Z,5.6
2023-04-25T02:40:01.118Z,5.6
2023-04-25T02:45:00.976Z,5.6
2023-04-25T02:50:00.862Z,5.6
2023-04-25T02:55:00.900Z,5.6
2023-04-25T03:00:00.881Z,5.7
2023-04-25T03:05:00.979Z,5.7
2023-04-25T03:10:01.084Z,5.6
2023-04-25T03:15:00.978Z,5.6
2023-04-25T03:20:00.883Z,5.6
2023-04-25T03:25:01.011Z,5.6
2023-04-25T03:30:00.996Z,5.5
2023-04-25T03:35:00.970Z,5.5
2023-04-25T03:40:00.893Z,5.4
2023-04-25T03:45:01.020Z,5.4
2023-04-25T03:50:01.008Z,5.4
2023-04-25T04:00:01.075Z,5.3
2023-04-25T04:05:01.300Z,5.3
2023-04-25T04:10:00.924Z,5.3
2023-04-25T04:15:00.987Z,5.3
2023-04-25T04:20:01.109Z,5.3
2023-04-25T04:25:00.954Z,5.3
2023-04-25T04:30:00.995Z,5.2
2023-04-25T04:35:00.986Z,5.2
2023-04-25T04:40:00.882Z,5.2
2023-04-25T04:45:00.865Z,5.2
2023-04-25T04:50:00.989Z,5.3
2023-04-25T04:55:00.973Z,5.3
2023-04-25T05:00:00.953Z,5.3
2023-04-25T05:05:00.935Z,5.2
2023-04-25T05:10:00.890Z,5.3
2023-04-25T05:15:00.911Z,5.3
2023-04-25T05:20:00.858Z,5.3
2023-04-25T05:25:00.869Z,5.4
2023-04-25T05:30:00.806Z,5.6
2023-04-25T05:35:00.996Z,5.7
2023-04-25T05:40:00.935Z,5.8
2023-04-25T05:45:00.832Z,5.9
2023-04-25T05:50:00.900Z,6
2023-04-25T05:55:00.898Z,6.1
2023-04-25T06:00:00.904Z,6.3
2023-04-25T06:05:01.108Z,6.4
2023-04-25T06:10:00.928Z,6.5
2023-04-25T06:20:00.820Z,6.4
2023-04-25T06:25:00.923Z,6.2
2023-04-25T06:30:00.883Z,6.2
2023-04-25T06:35:00.910Z,6.1
2023-04-25T06:40:00.915Z,6.2
2023-04-25T06:45:01.014Z,6.1
2023-04-25T06:50:00.920Z,6.2
2023-04-25T06:55:00.941Z,6.2
2023-04-25T07:00:02.375Z,6.1
2023-04-25T07:05:00.976Z,6.1
2023-04-25T07:10:00.968Z,6.1
2023-04-25T07:15:00.957Z,6.1
2023-04-25T07:20:00.892Z,6.2
2023-04-25T07:25:00.989Z,6.2
2023-04-25T07:30:01.038Z,6.3
2023-04-25T07:35:00.981Z,6.3
2023-04-25T07:40:00.904Z,6.3
2023-04-25T07:45:00.948Z,6.4
2023-04-25T07:50:00.918Z,6.4
2023-04-25T07:55:00.907Z,6.4
2023-04-25T08:00:00.839Z,6.4
2023-04-25T08:05:01.055Z,6.3
2023-04-25T08:10:00.928Z,6.3
2023-04-25T08:15:00.921Z,6.4
2023-04-25T08:20:00.894Z,6.5
2023-04-25T08:30:00.930Z,6.4
2023-04-25T08:35:00.869Z,6.6
2023-04-25T08:40:00.907Z,6.7
2023-04-25T08:45:00.881Z,6.7
2023-04-25T08:50:00.994Z,6.7
2023-04-25T08:55:00.833Z,6.9
2023-04-25T09:00:00.897Z,6.8
2023-04-25T09:05:00.911Z,6.7
2023-04-25T09:10:00.907Z,6.6
2023-04-25T09:15:00.930Z,6.5
2023-04-25T09:20:00.999Z,6.4
2023-04-25T09:25:00.947Z,6.5
2023-04-25T09:30:00.866Z,6.5
2023-04-25T09:35:01.013Z,6.7
2023-04-25T09:40:00.813Z,6.6
2023-04-25T09:45:00.824Z,6.7
2023-04-25T09:50:00.889Z,6.9
2023-04-25T09:55:00.915Z,6.9
2023-04-25T10:00:00.821Z,7.1
2023-04-25T10:05:00.901Z,6.6
2023-04-25T10:10:00.941Z,6.5
2023-04-25T10:15:00.942Z,6.5
2023-04-25T10:20:01.062Z,6.6
2023-04-25T10:25:01.018Z,6.5
2023-04-25T10:30:01.007Z,6.6
2023-04-25T10:35:00.942Z,6.7
2023-04-25T10:40:00.975Z,7.1
2023-04-25T10:50:00.955Z,7.2
2023-04-25T10:55:00.954Z,7.1
2023-04-25T11:00:00.892Z,6.5
2023-04-25T11:05:00.861Z,6.4
2023-04-25T11:15:00.878Z,6.4
2023-04-25T11:25:00.879Z,6.6
2023-04-25T11:30:00.875Z,6.5
2023-04-25T11:35:00.898Z,6.9
2023-04-25T11:45:01.013Z,6.5
2023-04-25T11:50:01.007Z,6.5
2023-04-25T11:55:00.875Z,6.4
2023-04-25T12:05:07.743Z,6.7
2023-04-25T12:10:00.861Z,6.7
2023-04-25T12:20:00.892Z,6.4
2023-04-25T12:25:00.925Z,6.5
2023-04-25T12:30:00.910Z,6.4
2023-04-25T12:35:00.947Z,6.3
2023-04-25T12:40:00.889Z,6.2
2023-04-25T12:45:00.963Z,6.1
2023-04-25T12:50:00.905Z,6.1
2023-04-25T12:55:00.817Z,6.1
2023-04-25T13:00:01.021Z,6.5
2023-04-25T13:05:01.011Z,7
2023-04-25T13:10:00.903Z,6.8
2023-04-25T13:15:00.906Z,6.8
2023-04-25T13:20:01.111Z,7
2023-04-25T13:25:00.979Z,6.9
2023-04-25T13:30:00.904Z,6.7
2023-04-25T13:35:02.305Z,6.6
2023-04-25T13:40:00.908Z,6.5
2023-04-25T13:45:00.988Z,6.5
2023-04-25T13:50:00.984Z,6.5
2023-04-25T13:55:01.073Z,6.7
2023-04-25T14:00:00.924Z,6.6
2023-04-25T14:05:00.891Z,6.4
2023-04-25T14:10:01.023Z,6.5
2023-04-25T14:20:00.991Z,6.4
2023-04-25T14:25:00.913Z,6.5
2023-04-25T15:20:00.960Z,7.2
2023-04-25T15:25:00.879Z,7.2
2023-04-25T15:30:01.003Z,7.1
2023-04-25T15:40:00.935Z,7.1
2023-04-25T15:45:01.250Z,7
2023-04-25T15:50:00.967Z,7
2023-04-25T15:55:00.990Z,6.8
2023-04-25T16:00:00.995Z,7
2023-04-25T16:05:01.366Z,7
2023-04-25T16:10:01.037Z,6.8
2023-04-25T16:25:01.091Z,7
2023-04-25T16:30:01.058Z,7
2023-04-25T16:35:01.112Z,7
2023-04-25T16:40:01.119Z,6.9
2023-04-25T16:45:01.033Z,6.8
2023-04-25T16:50:00.997Z,6.8
2023-04-25T16:55:00.993Z,6.7
2023-04-25T17:00:01.008Z,6.7
2023-04-25T17:05:00.967Z,6.7
2023-04-25T17:10:00.947Z,6.7
2023-04-25T17:15:01.029Z,6.6
2023-04-25T17:20:00.926Z,6.6
2023-04-25T17:25:01.019Z,6.6
2023-04-25T17:30:00.989Z,6.6
2023-04-25T17:35:01.028Z,6.6
2023-04-25T17:40:01.079Z,6.6
2023-04-25T17:45:00.994Z,6.6
2023-04-25T17:50:00.974Z,6.6
2023-04-25T17:55:00.956Z,6.6
2023-04-25T18:00:01.117Z,6.6
2023-04-25T18:05:00.989Z,6.6
2023-04-25T18:10:00.933Z,6.6
2023-04-25T18:15:00.912Z,6.5
2023-04-25T18:20:00.983Z,6.5
2023-04-25T18:25:00.933Z,6.5
2023-04-25T18:30:00.983Z,6.5
2023-04-25T18:35:00.883Z,6.5
2023-04-25T18:40:00.951Z,6.5
2023-04-25T18:45:00.959Z,6.5
2023-04-25T18:50:01.008Z,6.5
2023-04-25T18:55:00.948Z,6.5
2023-04-25T19:00:00.965Z,6.5
2023-04-25T19:05:01.028Z,6.6
2023-04-25T19:10:00.880Z,6.5
2023-04-25T19:15:01.084Z,6.5
2023-04-25T19:20:00.901Z,6.6
2023-04-25T19:25:09.706Z,6.6
2023-04-25T19:35:00.953Z,6.4
2023-04-25T19:40:01.701Z,6.4
2023-04-25T19:45:01.801Z,6.4
2023-04-25T19:50:01.684Z,6.3
2023-04-25T19:55:00.959Z,6.3
2023-04-25T20:00:01.866Z,6.4
2023-04-25T20:05:00.599Z,6.4
2023-04-25T20:10:01.312Z,6.4
2023-04-25T20:15:01.304Z,6.4
2023-04-25T20:20:01.262Z,6.4
2023-04-25T20:25:01.005Z,6.4
2023-04-25T20:30:01.886Z,6.4
2023-04-25T20:35:00.830Z,6.4
2023-04-25T20:40:01.651Z,6.4
2023-04-25T20:50:01.546Z,6.6
2023-04-25T20:55:00.816Z,6.4
2023-04-25T21:00:01.615Z,6.3
2023-04-25T21:05:00.844Z,6.2
2023-04-25T21:10:01.542Z,6.2
2023-04-25T21:15:01.521Z,6.2
2023-04-25T21:20:01.589Z,6.2
2023-04-25T21:25:00.777Z,6.2
2023-04-25T21:30:01.835Z,6.2
2023-04-25T21:35:00.804Z,6.2
2023-04-25T21:40:01.925Z,6.2
2023-04-25T21:45:01.509Z,6.3
2023-04-25T21:50:01.713Z,6.3
2023-04-25T21:55:00.826Z,6.3
2023-04-25T22:00:01.858Z,6.3
2023-04-25T22:05:00.898Z,6.3
2023-04-25T22:10:01.690Z,6.3
2023-04-25T22:15:01.522Z,6.3
2023-04-25T22:20:01.492Z,6.3
2023-04-25T22:25:00.746Z,6.3
2023-04-25T22:30:01.474Z,6.3
2023-04-25T22:35:00.701Z,6.3
2023-04-25T22:40:01.409Z,6.3
2023-04-25T22:45:01.681Z,6.3
2023-04-25T22:50:01.602Z,6.2
2023-04-25T22:55:00.740Z,6.2
2023-04-25T23:00:02.056Z,6.2
2023-04-25T23:05:00.726Z,6.2
2023-04-25T23:10:01.315Z,6.2
2023-04-25T23:20:01.360Z,6.2
2023-04-25T23:25:00.799Z,6.1
2023-04-25T23:30:01.393Z,6.1
2023-04-25T23:35:00.695Z,6.1
2023-04-25T23:40:01.299Z,6.1
2023-04-25T23:45:01.401Z,6.2
2023-04-25T23:50:01.387Z,6.2
2023-04-25T23:55:00.738Z,6.2
